Time;durP1;ratioP1;P1;durP2;ratioP2;P2;SDS_P1;SDS_P2;PMS_P1;PMS_P2;Temp;Humidity;BMP_temperature;BMP_pressure;BME280_temperature;BME280_humidity;BME280_pressure;Samples;Min_cycle;Max_cycle;Signal;HPM_P1;HPM_P2
2023/07/26 00:01:33;;;;;;;3.90;2.10;;;;;;;;;;4952436;28;99485;-75
2023/07/26 00:04:00;;;;;;;8.32;2.22;;;;;;;;;;4950743;28;100401;-76
2023/07/26 00:06:26;;;;;;;4.57;1.88;;;;;;;;;;4949903;28;98542;-78
2023/07/26 00:08:53;;;;;;;3.72;1.98;;;;;;;;;;4969428;28;99175;-75
2023/07/26 00:11:19;;;;;;;4.97;1.95;;;;;;;;;;4969969;28;99298;-78
2023/07/26 00:13:46;;;;;;;4.43;1.83;;;;;;;;;;4958312;28;98697;-73
2023/07/26 00:16:12;;;;;;;1.80;1.63;;;;;;;;;;4952393;28;99323;-72
2023/07/26 00:18:39;;;;;;;5.97;1.67;;;;;;;;;;4969921;28;98630;-75
2023/07/26 00:21:06;;;;;;;4.85;1.90;;;;;;;;;;4969716;28;99133;-75
2023/07/26 00:23:32;;;;;;;6.10;1.58;;;;;;;;;;4969481;28;99510;-73
2023/07/26 00:25:59;;;;;;;3.13;1.90;;;;;;;;;;4970039;28;97835;-74
2023/07/26 00:28:25;;;;;;;6.68;1.98;;;;;;;;;;4969549;28;98772;-75
2023/07/26 00:30:51;;;;;;;5.53;2.00;;;;;;;;;;4967616;28;99531;-75
2023/07/26 00:33:18;;;;;;;4.07;1.85;;;;;;;;;;4966523;28;99390;-75
2023/07/26 00:35:44;;;;;;;2.50;1.92;;;;;;;;;;4953242;28;100879;-78
2023/07/26 00:38:11;;;;;;;3.80;2.05;;;;;;;;;;4946462;28;98725;-77
2023/07/26 00:40:38;;;;;;;5.03;1.80;;;;;;;;;;4969538;28;101982;-79
2023/07/26 00:43:05;;;;;;;5.03;2.08;;;;;;;;;;4967347;28;99808;-75
2023/07/26 00:45:33;;;;;;;3.63;1.95;;;;;;;;;;4969959;28;98678;-72
2023/07/26 00:47:59;;;;;;;2.78;2.15;;;;;;;;;;4968509;28;100225;-73
2023/07/26 00:50:26;;;;;;;4.70;2.40;;;;;;;;;;4966938;28;98751;-73
2023/07/26 00:52:52;;;;;;;4.55;2.72;;;;;;;;;;4968588;28;98545;-72
2023/07/26 00:55:19;;;;;;;3.40;2.20;;;;;;;;;;4949382;28;99467;-73
2023/07/26 00:57:46;;;;;;;3.25;2.10;;;;;;;;;;4973276;28;101591;-73
2023/07/26 01:00:13;;;;;;;2.33;2.13;;;;;;;;;;4967833;28;99863;-72
2023/07/26 01:02:39;;;;;;;3.13;2.28;;;;;;;;;;4972082;28;99595;-73
2023/07/26 01:05:06;;;;;;;3.40;2.33;;;;;;;;;;4971451;28;98891;-73
2023/07/26 01:07:44;;;;;;;3.80;2.40;;;;;;;;;;4972473;28;102478;-73
2023/07/26 01:10:11;;;;;;;5.32;2.70;;;;;;;;;;4970167;28;99483;-72
2023/07/26 01:12:42;;;;;;;3.17;2.20;;;;;;;;;;4971617;28;98595;-72
2023/07/26 01:15:10;;;;;;;5.20;3.30;;;;;;;;;;4972695;28;99172;-72
2023/07/26 01:17:37;;;;;;;4.65;2.58;;;;;;;;;;4970900;28;99956;-72
2023/07/26 01:20:03;;;;;;;3.47;2.65;;;;;;;;;;4957723;28;98546;-72
2023/07/26 01:22:30;;;;;;;4.65;2.63;;;;;;;;;;4970561;28;100237;-72
2023/07/26 01:24:56;;;;;;;5.15;2.90;;;;;;;;;;4971312;28;98527;-72
2023/07/26 01:27:23;;;;;;;3.80;2.78;;;;;;;;;;4954368;28;99732;-73
2023/07/26 01:29:54;;;;;;;4.10;3.03;;;;;;;;;;4970687;28;99584;-73
2023/07/26 01:32:22;;;;;;;4.18;2.67;;;;;;;;;;4970198;28;99029;-73
2023/07/26 01:34:48;;;;;;;3.50;2.75;;;;;;;;;;4972395;28;99270;-73
2023/07/26 01:37:16;;;;;;;7.03;3.10;;;;;;;;;;4969135;28;99544;-73
2023/07/26 01:39:43;;;;;;;3.90;3.50;;;;;;;;;;4974201;28;97919;-73
2023/07/26 01:42:10;;;;;;;4.65;2.90;;;;;;;;;;4968570;28;101564;-73
2023/07/26 01:44:36;;;;;;;4.63;3.00;;;;;;;;;;4968526;28;98937;-73
2023/07/26 01:47:03;;;;;;;3.60;3.10;;;;;;;;;;4962391;28;99388;-73
2023/07/26 01:49:29;;;;;;;3.50;3.03;;;;;;;;;;4966697;28;102506;-73
2023/07/26 01:51:56;;;;;;;4.28;3.05;;;;;;;;;;4967669;28;98691;-73
2023/07/26 01:54:22;;;;;;;5.72;3.40;;;;;;;;;;4970354;28;100360;-72
2023/07/26 01:56:49;;;;;;;3.92;3.30;;;;;;;;;;4968214;28;99660;-72
2023/07/26 01:59:15;;;;;;;8.50;2.97;;;;;;;;;;4967224;28;99047;-72
2023/07/26 02:01:41;;;;;;;4.75;3.20;;;;;;;;;;4974078;28;100215;-72
2023/07/26 02:04:08;;;;;;;3.33;3.03;;;;;;;;;;4972266;28;98231;-73
2023/07/26 02:06:34;;;;;;;4.50;3.17;;;;;;;;;;4971242;28;98520;-72
2023/07/26 02:09:01;;;;;;;3.55;3.05;;;;;;;;;;4969986;28;99488;-73
2023/07/26 02:11:27;;;;;;;5.50;3.85;;;;;;;;;;4967626;28;99274;-73
2023/07/26 02:13:53;;;;;;;5.50;3.83;;;;;;;;;;4970739;28;99987;-73
2023/07/26 02:16:20;;;;;;;4.63;3.17;;;;;;;;;;4969066;28;99505;-74
2023/07/26 02:18:46;;;;;;;3.33;2.85;;;;;;;;;;4970743;28;99215;-73
2023/07/26 02:21:13;;;;;;;3.35;2.95;;;;;;;;;;4969529;28;99122;-74
2023/07/26 02:23:39;;;;;;;3.42;3.13;;;;;;;;;;4973869;28;99238;-73
2023/07/26 02:26:05;;;;;;;4.05;2.80;;;;;;;;;;4970052;28;99191;-73
2023/07/26 02:28:32;;;;;;;3.15;2.80;;;;;;;;;;4970485;28;98740;-73
2023/07/26 02:30:58;;;;;;;4.95;3.00;;;;;;;;;;4965498;28;98790;-72
2023/07/26 02:33:24;;;;;;;6.05;3.20;;;;;;;;;;4963875;28;99172;-72
2023/07/26 02:35:51;;;;;;;3.53;3.22;;;;;;;;;;4965797;28;100329;-72
2023/07/26 02:38:17;;;;;;;3.63;2.88;;;;;;;;;;4968775;28;98603;-71
2023/07/26 02:40:43;;;;;;;5.70;3.05;;;;;;;;;;4969245;28;99216;-71
2023/07/26 02:43:10;;;;;;;5.03;3.22;;;;;;;;;;4950307;28;99490;-71
2023/07/26 02:45:36;;;;;;;3.67;3.10;;;;;;;;;;4955320;28;101011;-72
2023/07/26 02:48:03;;;;;;;9.20;4.43;;;;;;;;;;4966685;28;99850;-71
2023/07/26 02:50:29;;;;;;;9.63;4.30;;;;;;;;;;4968022;28;98574;-71
2023/07/26 02:52:55;;;;;;;5.20;4.50;;;;;;;;;;4968836;28;99117;-71
2023/07/26 02:55:22;;;;;;;10.48;4.22;;;;;;;;;;4969512;28;99764;-71
2023/07/26 02:57:48;;;;;;;4.90;4.10;;;;;;;;;;4968648;28;98594;-71
2023/07/26 03:00:14;;;;;;;8.18;4.75;;;;;;;;;;4968612;28;99480;-71
2023/07/26 03:02:41;;;;;;;5.68;4.50;;;;;;;;;;4968350;28;100501;-71
2023/07/26 03:05:08;;;;;;;6.53;4.60;;;;;;;;;;4968822;28;98647;-72
2023/07/26 03:07:34;;;;;;;7.25;4.53;;;;;;;;;;4967181;28;99003;-72
2023/07/26 03:10:01;;;;;;;10.80;4.30;;;;;;;;;;4970473;28;98697;-72
2023/07/26 03:12:27;;;;;;;7.82;4.50;;;;;;;;;;4950633;28;99181;-73
2023/07/26 03:14:54;;;;;;;9.13;4.70;;;;;;;;;;4962757;28;99499;-73
2023/07/26 03:17:20;;;;;;;7.07;4.40;;;;;;;;;;4969154;28;97824;-72
2023/07/26 03:19:50;;;;;;;7.00;4.65;;;;;;;;;;4965427;28;98712;-72
2023/07/26 03:22:16;;;;;;;9.27;5.05;;;;;;;;;;4968195;28;100551;-73
2023/07/26 03:24:42;;;;;;;8.13;5.13;;;;;;;;;;4969517;28;99317;-73
2023/07/26 03:27:09;;;;;;;9.20;5.40;;;;;;;;;;4953220;28;99873;-72
2023/07/26 03:29:35;;;;;;;7.20;4.85;;;;;;;;;;4968962;28;98510;-72
2023/07/26 03:32:02;;;;;;;5.90;4.40;;;;;;;;;;4966446;28;99033;-72
2023/07/26 03:34:28;;;;;;;7.65;4.30;;;;;;;;;;4968531;28;99183;-73
2023/07/26 03:36:54;;;;;;;7.78;4.80;;;;;;;;;;4969347;28;100334;-73
2023/07/26 03:39:21;;;;;;;8.40;4.93;;;;;;;;;;4969058;28;99256;-73
2023/07/26 03:41:47;;;;;;;5.47;4.38;;;;;;;;;;4968259;28;98813;-72
2023/07/26 03:44:14;;;;;;;7.45;4.88;;;;;;;;;;4968770;28;98625;-75
2023/07/26 03:46:40;;;;;;;9.32;5.03;;;;;;;;;;4968311;28;99308;-73
2023/07/26 03:49:06;;;;;;;6.15;4.57;;;;;;;;;;4969638;28;100200;-73
2023/07/26 03:51:33;;;;;;;9.55;4.75;;;;;;;;;;4965814;28;99857;-73
2023/07/26 03:53:59;;;;;;;10.25;5.65;;;;;;;;;;4968058;28;100840;-73
2023/07/26 03:56:26;;;;;;;7.80;5.40;;;;;;;;;;4964812;28;99143;-73
2023/07/26 03:58:52;;;;;;;7.70;4.90;;;;;;;;;;4967285;28;99157;-72
2023/07/26 04:01:18;;;;;;;5.97;5.30;;;;;;;;;;4950053;28;99478;-72
2023/07/26 04:03:45;;;;;;;7.05;5.50;;;;;;;;;;4950795;28;98611;-72
2023/07/26 04:06:12;;;;;;;6.38;5.60;;;;;;;;;;4952086;28;99346;-72
2023/07/26 04:08:39;;;;;;;8.32;6.38;;;;;;;;;;4951791;28;99476;-72
2023/07/26 04:11:06;;;;;;;8.82;6.32;;;;;;;;;;4955200;28;98658;-72
2023/07/26 04:13:33;;;;;;;10.07;6.93;;;;;;;;;;4967083;28;100437;-71
2023/07/26 04:16:00;;;;;;;11.52;6.47;;;;;;;;;;4968668;28;98556;-71
2023/07/26 04:18:26;;;;;;;16.23;6.90;;;;;;;;;;4950393;28;100583;-70
2023/07/26 04:20:53;;;;;;;9.70;7.40;;;;;;;;;;4951353;28;99492;-70
2023/07/26 04:23:19;;;;;;;10.35;6.72;;;;;;;;;;4966296;28;99980;-71
2023/07/26 04:25:49;;;;;;;9.68;7.03;;;;;;;;;;4969100;28;99963;-70
2023/07/26 04:28:16;;;;;;;10.32;6.90;;;;;;;;;;4961162;28;99478;-71
2023/07/26 04:30:43;;;;;;;11.70;7.40;;;;;;;;;;4968289;28;98875;-70
2023/07/26 04:33:10;;;;;;;9.80;7.50;;;;;;;;;;4973178;28;99762;-71
2023/07/26 04:35:36;;;;;;;8.77;7.88;;;;;;;;;;4970599;28;98578;-71
2023/07/26 04:38:02;;;;;;;13.32;7.55;;;;;;;;;;4971594;28;99331;-71
2023/07/26 04:40:29;;;;;;;9.60;7.30;;;;;;;;;;4971645;28;100492;-71
2023/07/26 04:42:55;;;;;;;12.40;7.30;;;;;;;;;;4970554;28;100418;-71
2023/07/26 04:45:21;;;;;;;10.00;7.07;;;;;;;;;;4969996;28;99218;-71
2023/07/26 04:47:48;;;;;;;9.82;6.90;;;;;;;;;;4951096;28;99442;-71
2023/07/26 04:50:14;;;;;;;12.02;7.47;;;;;;;;;;4972227;28;98491;-71
2023/07/26 04:52:41;;;;;;;12.55;8.27;;;;;;;;;;4971569;28;99470;-71
2023/07/26 04:55:07;;;;;;;10.30;7.63;;;;;;;;;;4974636;28;97775;-70
2023/07/26 04:57:37;;;;;;;13.88;7.80;;;;;;;;;;4953883;28;98654;-71
2023/07/26 05:00:03;;;;;;;11.00;7.05;;;;;;;;;;4961692;28;99481;-71
2023/07/26 05:02:30;;;;;;;11.95;7.47;;;;;;;;;;4971514;28;99718;-72
2023/07/26 05:04:56;;;;;;;9.35;7.18;;;;;;;;;;4971649;28;101587;-72
2023/07/26 05:07:22;;;;;;;10.00;7.72;;;;;;;;;;4971083;28;99528;-74
2023/07/26 05:09:49;;;;;;;14.90;7.97;;;;;;;;;;4955558;28;98820;-73
2023/07/26 05:12:15;;;;;;;9.40;7.65;;;;;;;;;;4973058;28;102120;-72
2023/07/26 05:14:43;;;;;;;10.40;7.18;;;;;;;;;;4952386;28;98650;-72
2023/07/26 05:17:09;;;;;;;14.90;7.53;;;;;;;;;;4958503;28;98535;-73
2023/07/26 05:19:35;;;;;;;11.65;7.68;;;;;;;;;;4968726;28;98739;-75
2023/07/26 05:22:02;;;;;;;8.15;7.15;;;;;;;;;;4969278;28;100469;-74
2023/07/26 05:24:28;;;;;;;9.98;7.80;;;;;;;;;;4970817;28;99148;-74
2023/07/26 05:26:54;;;;;;;11.48;7.40;;;;;;;;;;4968298;28;100858;-73
2023/07/26 05:29:21;;;;;;;9.65;7.03;;;;;;;;;;4971301;28;100236;-73
2023/07/26 05:31:47;;;;;;;8.98;7.30;;;;;;;;;;4952117;28;99169;-73
2023/07/26 05:34:14;;;;;;;8.52;6.90;;;;;;;;;;4970709;28;99877;-73
2023/07/26 05:36:40;;;;;;;10.30;6.85;;;;;;;;;;4972832;28;98708;-73
2023/07/26 05:39:06;;;;;;;12.13;6.90;;;;;;;;;;4969808;28;99494;-73
2023/07/26 05:41:33;;;;;;;13.90;7.30;;;;;;;;;;4971575;28;98491;-72
2023/07/26 05:43:59;;;;;;;11.93;6.93;;;;;;;;;;4970145;28;99594;-72
2023/07/26 05:46:26;;;;;;;7.32;6.57;;;;;;;;;;4969055;28;99549;-74
2023/07/26 05:48:52;;;;;;;10.50;6.72;;;;;;;;;;4969701;28;98940;-76
2023/07/26 05:51:19;;;;;;;10.55;6.40;;;;;;;;;;4970406;28;99286;-75
2023/07/26 05:53:45;;;;;;;9.70;6.65;;;;;;;;;;4969388;28;99471;-75
2023/07/26 05:56:13;;;;;;;13.27;6.70;;;;;;;;;;4968612;28;98585;-75
2023/07/26 05:58:39;;;;;;;8.40;6.45;;;;;;;;;;4973232;28;99158;-75
2023/07/26 06:01:06;;;;;;;8.40;6.22;;;;;;;;;;4954671;28;98598;-75
2023/07/26 06:03:35;;;;;;;11.70;6.68;;;;;;;;;;4950660;28;99279;-74
2023/07/26 06:06:02;;;;;;;16.23;6.38;;;;;;;;;;4969126;28;99600;-75
2023/07/26 06:08:28;;;;;;;12.25;6.63;;;;;;;;;;4953960;28;97879;-74
2023/07/26 06:10:55;;;;;;;14.65;6.65;;;;;;;;;;4969698;28;98557;-75
2023/07/26 06:13:21;;;;;;;10.35;6.32;;;;;;;;;;4970850;28;99418;-74
2023/07/26 06:15:47;;;;;;;14.18;7.25;;;;;;;;;;4953791;28;99594;-74
2023/07/26 06:18:14;;;;;;;11.02;6.68;;;;;;;;;;4972033;28;101073;-74
2023/07/26 06:20:40;;;;;;;10.48;7.65;;;;;;;;;;4973155;28;99743;-74
2023/07/26 06:23:07;;;;;;;13.23;7.47;;;;;;;;;;4968729;28;99156;-73
2023/07/26 06:25:33;;;;;;;15.25;8.30;;;;;;;;;;4969074;28;100165;-73
2023/07/26 06:28:00;;;;;;;22.60;8.55;;;;;;;;;;4971321;28;98554;-73
2023/07/26 06:30:26;;;;;;;14.13;7.72;;;;;;;;;;4971195;28;99251;-72
2023/07/26 06:32:52;;;;;;;20.30;8.63;;;;;;;;;;4966957;28;99456;-73
2023/07/26 06:35:19;;;;;;;11.75;8.38;;;;;;;;;;4970217;28;98581;-72
2023/07/26 06:37:45;;;;;;;12.75;8.68;;;;;;;;;;4969102;28;99492;-72
2023/07/26 06:40:12;;;;;;;16.02;9.38;;;;;;;;;;4969737;28;99930;-72
2023/07/26 06:42:38;;;;;;;16.42;8.80;;;;;;;;;;4968212;28;98545;-73
2023/07/26 06:45:05;;;;;;;14.75;9.30;;;;;;;;;;4950032;28;99675;-72
2023/07/26 06:47:31;;;;;;;18.40;9.52;;;;;;;;;;4962288;28;98621;-72
2023/07/26 06:49:58;;;;;;;11.63;6.80;;;;;;;;;;4960342;28;99232;-72
2023/07/26 06:52:27;;;;;;;8.13;4.53;;;;;;;;;;4973774;28;99959;-72
2023/07/26 06:54:54;;;;;;;7.30;4.25;;;;;;;;;;4952007;28;98610;-72
2023/07/26 06:57:20;;;;;;;6.35;3.47;;;;;;;;;;4969335;28;99454;-73
2023/07/26 06:59:46;;;;;;;6.30;3.25;;;;;;;;;;4969571;28;99506;-72
2023/07/26 07:02:13;;;;;;;5.50;3.10;;;;;;;;;;4971184;28;98525;-74
2023/07/26 07:04:39;;;;;;;4.35;3.42;;;;;;;;;;4973391;28;99512;-74
2023/07/26 07:07:06;;;;;;;5.10;3.00;;;;;;;;;;4966361;28;99757;-74
2023/07/26 07:09:32;;;;;;;6.13;3.13;;;;;;;;;;4955148;28;98957;-74
2023/07/26 07:11:58;;;;;;;7.40;4.20;;;;;;;;;;4970484;28;100453;-75
2023/07/26 07:14:25;;;;;;;9.43;4.00;;;;;;;;;;4969039;28;98691;-75
2023/07/26 07:16:51;;;;;;;6.57;3.97;;;;;;;;;;4952474;28;99154;-74
2023/07/26 07:19:17;;;;;;;6.50;3.38;;;;;;;;;;4969480;28;99414;-77
2023/07/26 07:21:44;;;;;;;7.78;3.97;;;;;;;;;;4952937;28;98039;-75
2023/07/26 07:24:10;;;;;;;6.35;3.15;;;;;;;;;;4952681;28;98665;-75
2023/07/26 07:26:37;;;;;;;4.78;3.53;;;;;;;;;;4971974;28;99943;-75
2023/07/26 07:29:03;;;;;;;6.72;3.45;;;;;;;;;;4951736;28;100190;-75
2023/07/26 07:31:30;;;;;;;5.72;3.50;;;;;;;;;;4967067;28;100562;-76
2023/07/26 07:33:57;;;;;;;8.07;3.20;;;;;;;;;;4969662;28;98662;-76
2023/07/26 07:36:23;;;;;;;4.50;3.42;;;;;;;;;;4969947;28;99158;-76
2023/07/26 07:38:49;;;;;;;6.13;4.05;;;;;;;;;;4968920;28;100549;-76
2023/07/26 07:41:16;;;;;;;4.53;4.10;;;;;;;;;;4969310;28;98938;-76
2023/07/26 07:43:42;;;;;;;6.68;3.90;;;;;;;;;;4969844;28;100166;-76
2023/07/26 07:46:09;;;;;;;4.35;3.80;;;;;;;;;;4955175;28;98717;-76
2023/07/26 07:48:36;;;;;;;4.90;3.97;;;;;;;;;;4967521;28;98513;-76
2023/07/26 07:51:02;;;;;;;10.18;4.03;;;;;;;;;;4969294;28;99534;-76
2023/07/26 07:53:29;;;;;;;9.68;3.88;;;;;;;;;;4950925;28;99490;-76
2023/07/26 07:55:56;;;;;;;5.45;3.70;;;;;;;;;;4969764;28;100286;-76
2023/07/26 07:58:22;;;;;;;5.20;3.70;;;;;;;;;;4951091;28;99481;-76
2023/07/26 08:00:49;;;;;;;5.35;3.35;;;;;;;;;;4968534;28;98523;-76
2023/07/26 08:03:15;;;;;;;8.27;4.00;;;;;;;;;;4968886;28;99162;-77
2023/07/26 08:05:42;;;;;;;6.03;3.72;;;;;;;;;;4968851;28;100456;-75
2023/07/26 08:08:08;;;;;;;5.78;4.25;;;;;;;;;;4972354;28;98903;-75
2023/07/26 08:10:37;;;;;;;8.77;4.28;;;;;;;;;;4951135;28;101125;-75
2023/07/26 08:13:03;;;;;;;8.80;4.95;;;;;;;;;;4946977;28;98534;-75
2023/07/26 08:15:32;;;;;;;7.22;4.85;;;;;;;;;;4969766;28;99405;-75
2023/07/26 08:17:59;;;;;;;8.77;4.97;;;;;;;;;;4968225;28;100129;-76
2023/07/26 08:20:26;;;;;;;6.70;5.20;;;;;;;;;;4951438;28;98649;-75
2023/07/26 08:22:52;;;;;;;7.25;5.10;;;;;;;;;;4968333;28;99138;-75
2023/07/26 08:25:23;;;;;;;15.65;5.88;;;;;;;;;;4969293;28;99470;-76
2023/07/26 08:27:49;;;;;;;10.05;5.60;;;;;;;;;;4967537;28;98736;-75
2023/07/26 08:30:16;;;;;;;7.32;5.25;;;;;;;;;;4971437;28;100135;-75
2023/07/26 08:32:42;;;;;;;6.78;5.10;;;;;;;;;;4966227;28;99068;-75
2023/07/26 08:35:09;;;;;;;14.05;5.97;;;;;;;;;;4951775;28;99172;-75
2023/07/26 08:37:35;;;;;;;8.43;5.45;;;;;;;;;;4963689;28;99482;-74
2023/07/26 08:40:02;;;;;;;10.80;5.78;;;;;;;;;;4967029;28;98712;-75
2023/07/26 08:42:28;;;;;;;8.38;5.13;;;;;;;;;;4969203;28;99636;-75
2023/07/26 08:44:55;;;;;;;7.45;4.70;;;;;;;;;;4969373;28;99484;-74
2023/07/26 08:47:22;;;;;;;9.48;4.85;;;;;;;;;;4968593;28;98546;-74
2023/07/26 08:49:49;;;;;;;8.57;5.35;;;;;;;;;;4965302;28;99300;-74
2023/07/26 08:52:18;;;;;;;12.27;5.63;;;;;;;;;;4954728;28;99983;-74
2023/07/26 08:54:48;;;;;;;9.50;5.00;;;;;;;;;;4951118;28;99128;-74
2023/07/26 08:57:16;;;;;;;10.07;5.53;;;;;;;;;;4949136;28;99527;-74
2023/07/26 08:59:43;;;;;;;9.15;5.45;;;;;;;;;;4968970;28;97834;-73
2023/07/26 09:02:10;;;;;;;10.90;6.07;;;;;;;;;;4950660;28;98763;-74
2023/07/26 09:04:37;;;;;;;9.63;5.78;;;;;;;;;;4965786;28;99731;-73
2023/07/26 09:07:04;;;;;;;8.20;4.78;;;;;;;;;;4948936;28;99274;-73
2023/07/26 09:09:34;;;;;;;10.52;5.20;;;;;;;;;;4949410;28;100083;-74
2023/07/26 09:12:01;;;;;;;10.43;4.80;;;;;;;;;;4949527;28;99264;-75
2023/07/26 09:14:28;;;;;;;7.20;4.55;;;;;;;;;;4972459;28;98600;-75
2023/07/26 09:16:56;;;;;;;9.98;4.97;;;;;;;;;;4950125;28;99480;-74
2023/07/26 09:19:29;;;;;;;10.38;4.90;;;;;;;;;;4970800;28;98654;-75
2023/07/26 09:21:57;;;;;;;14.43;5.63;;;;;;;;;;4969670;28;99227;-75
2023/07/26 09:24:28;;;;;;;14.82;5.72;;;;;;;;;;4971971;28;99268;-73
2023/07/26 09:27:01;;;;;;;18.95;6.28;;;;;;;;;;4972627;28;98892;-73
2023/07/26 09:29:27;;;;;;;13.43;5.80;;;;;;;;;;4972291;28;99168;-72
2023/07/26 09:31:54;;;;;;;12.23;5.82;;;;;;;;;;4966779;28;100857;-73
2023/07/26 09:34:21;;;;;;;11.07;5.45;;;;;;;;;;4971590;28;98465;-73
2023/07/26 09:36:51;;;;;;;9.50;5.25;;;;;;;;;;4972221;28;99482;-73
2023/07/26 09:39:18;;;;;;;10.10;5.65;;;;;;;;;;4966458;28;98553;-73
2023/07/26 09:41:49;;;;;;;10.43;5.72;;;;;;;;;;4971920;28;100326;-74
2023/07/26 09:44:17;;;;;;;17.00;6.20;;;;;;;;;;4970384;28;99484;-73
2023/07/26 09:46:55;;;;;;;11.88;6.10;;;;;;;;;;4970798;28;98601;-73
2023/07/26 09:49:22;;;;;;;18.58;5.78;;;;;;;;;;4971636;28;99322;-74
2023/07/26 09:51:54;;;;;;;11.48;6.18;;;;;;;;;;4970890;28;99850;-74
2023/07/26 09:54:26;;;;;;;14.80;5.80;;;;;;;;;;4970384;28;98590;-74
2023/07/26 09:56:59;;;;;;;11.13;5.53;;;;;;;;;;4951255;28;99660;-74
2023/07/26 09:59:27;;;;;;;12.55;6.22;;;;;;;;;;4952651;28;98485;-73
2023/07/26 10:01:55;;;;;;;16.42;6.13;;;;;;;;;;4968123;28;99503;-74
2023/07/26 10:04:33;;;;;;;14.18;6.03;;;;;;;;;;4968028;28;99608;-73
2023/07/26 10:07:02;;;;;;;15.20;5.97;;;;;;;;;;4967833;28;98719;-74
2023/07/26 10:09:29;;;;;;;10.05;5.18;;;;;;;;;;4970309;28;99717;-73
2023/07/26 10:11:57;;;;;;;8.68;3.58;;;;;;;;;;4968657;28;99484;-72
2023/07/26 10:14:24;;;;;;;9.32;3.55;;;;;;;;;;4949438;28;97879;-72
2023/07/26 10:16:51;;;;;;;8.05;3.38;;;;;;;;;;4962231;28;100498;-72
2023/07/26 10:19:18;;;;;;;8.70;3.45;;;;;;;;;;4972404;28;99563;-72
2023/07/26 10:21:46;;;;;;;10.57;3.00;;;;;;;;;;4952581;28;99499;-72
2023/07/26 10:24:14;;;;;;;5.75;2.83;;;;;;;;;;4970345;28;99439;-72
2023/07/26 10:26:42;;;;;;;4.50;2.58;;;;;;;;;;4968957;28;98885;-72
2023/07/26 10:29:09;;;;;;;4.28;2.72;;;;;;;;;;4970112;28;99852;-73
2023/07/26 10:31:36;;;;;;;7.63;2.47;;;;;;;;;;4970478;28;99592;-72
2023/07/26 10:34:03;;;;;;;4.68;3.08;;;;;;;;;;4953824;28;98572;-73
2023/07/26 10:36:30;;;;;;;3.70;2.55;;;;;;;;;;4966656;28;100187;-73
2023/07/26 10:39:02;;;;;;;5.68;2.60;;;;;;;;;;4970673;28;99172;-73
2023/07/26 10:41:29;;;;;;;11.32;3.10;;;;;;;;;;4974286;28;98535;-73
2023/07/26 10:44:08;;;;;;;3.53;2.78;;;;;;;;;;4953276;28;99565;-73
2023/07/26 10:46:50;;;;;;;5.55;2.72;;;;;;;;;;4968266;28;99556;-73
2023/07/26 10:49:18;;;;;;;4.82;2.78;;;;;;;;;;4969041;28;100172;-73
2023/07/26 10:51:52;;;;;;;8.35;2.60;;;;;;;;;;4965963;28;99513;-73
2023/07/26 10:54:48;;;;;;;6.75;2.60;;;;;;;;;;4950594;28;98799;-74
2023/07/26 10:57:20;;;;;;;6.50;2.60;;;;;;;;;;4942779;28;99203;-73
2023/07/26 10:59:50;;;;;;;3.45;2.60;;;;;;;;;;4961856;28;99311;-73
2023/07/26 11:02:35;;;;;;;7.50;2.58;;;;;;;;;;4936121;28;98604;-73
2023/07/26 11:05:02;;;;;;;3.25;2.40;;;;;;;;;;4971315;28;99337;-74
2023/07/26 11:07:48;;;;;;;5.32;2.15;;;;;;;;;;4952493;28;98820;-74
2023/07/26 11:10:21;;;;;;;4.50;2.00;;;;;;;;;;4970372;28;99199;-72
2023/07/26 11:12:49;;;;;;;3.83;2.20;;;;;;;;;;4964386;28;101114;-73
2023/07/26 11:15:26;;;;;;;8.20;1.92;;;;;;;;;;4966948;28;99322;-75
2023/07/26 11:18:13;;;;;;;8.57;2.45;;;;;;;;;;4969647;28;99254;-73
2023/07/26 11:20:43;;;;;;;4.32;2.38;;;;;;;;;;4969982;28;99468;-73
2023/07/26 11:23:26;;;;;;;3.08;2.00;;;;;;;;;;4969968;28;98596;-73
2023/07/26 11:25:55;;;;;;;5.00;2.40;;;;;;;;;;4963595;28;99561;-72
2023/07/26 11:28:21;;;;;;;3.75;2.30;;;;;;;;;;4971768;28;99501;-73
2023/07/26 11:30:49;;;;;;;3.03;2.17;;;;;;;;;;4970803;28;99139;-74
2023/07/26 11:33:45;;;;;;;4.65;2.40;;;;;;;;;;4968442;28;100214;-74
2023/07/26 11:36:19;;;;;;;5.53;2.35;;;;;;;;;;4934072;28;98590;-74
2023/07/26 11:38:45;;;;;;;5.15;2.47;;;;;;;;;;4968812;28;99736;-74
2023/07/26 11:41:18;;;;;;;3.45;2.13;;;;;;;;;;4969768;28;99500;-74
2023/07/26 11:43:45;;;;;;;4.32;2.08;;;;;;;;;;4969348;28;98551;-74
2023/07/26 11:46:11;;;;;;;5.35;2.30;;;;;;;;;;4970405;28;99663;-74
2023/07/26 11:48:42;;;;;;;4.82;2.47;;;;;;;;;;4951839;28;100520;-75
2023/07/26 11:51:09;;;;;;;3.85;2.28;;;;;;;;;;4970251;28;98863;-74
2023/07/26 11:53:41;;;;;;;5.20;2.08;;;;;;;;;;4970231;28;99265;-74
2023/07/26 11:56:11;;;;;;;4.35;2.55;;;;;;;;;;4968190;28;97890;-74
2023/07/26 11:58:38;;;;;;;2.85;2.05;;;;;;;;;;4956541;28;99434;-75
2023/07/26 12:01:05;;;;;;;5.88;2.10;;;;;;;;;;4957229;28;99353;-74
2023/07/26 12:03:31;;;;;;;6.22;2.22;;;;;;;;;;4968374;28;99262;-73
2023/07/26 12:05:58;;;;;;;5.03;2.50;;;;;;;;;;4951622;28;100283;-74
2023/07/26 12:08:32;;;;;;;6.15;2.40;;;;;;;;;;4955936;28;100389;-74
2023/07/26 12:11:02;;;;;;;5.95;2.25;;;;;;;;;;4973334;28;98640;-74
2023/07/26 12:13:31;;;;;;;3.00;2.15;;;;;;;;;;4968811;28;99493;-74
2023/07/26 12:15:59;;;;;;;4.43;2.58;;;;;;;;;;4967751;28;98753;-74
2023/07/26 12:18:26;;;;;;;5.68;2.40;;;;;;;;;;4950691;28;99268;-74
2023/07/26 12:20:59;;;;;;;7.00;3.10;;;;;;;;;;4950345;28;98748;-74
2023/07/26 12:23:49;;;;;;;3.80;2.17;;;;;;;;;;4967731;28;98573;-74
2023/07/26 12:26:17;;;;;;;3.63;2.58;;;;;;;;;;4968622;28;99135;-74
2023/07/26 12:28:44;;;;;;;5.00;2.80;;;;;;;;;;4969238;28;100193;-73
2023/07/26 12:31:18;;;;;;;4.43;2.38;;;;;;;;;;4950247;28;99008;-74
2023/07/26 12:33:54;;;;;;;9.63;2.28;;;;;;;;;;4969367;28;99829;-76
2023/07/26 12:36:22;;;;;;;5.65;2.47;;;;;;;;;;4965827;28;98819;-73
2023/07/26 12:38:48;;;;;;;3.83;2.50;;;;;;;;;;4968075;28;98527;-74
2023/07/26 12:41:15;;;;;;;9.20;2.40;;;;;;;;;;4969190;28;99453;-74
2023/07/26 12:43:42;;;;;;;3.67;2.40;;;;;;;;;;4968367;28;99908;-73
2023/07/26 12:46:13;;;;;;;6.20;2.57;;;;;;;;;;4967861;28;99128;-74
2023/07/26 12:48:40;;;;;;;11.05;2.38;;;;;;;;;;4950436;28;99291;-73
2023/07/26 12:51:06;;;;;;;4.57;2.83;;;;;;;;;;4969711;28;98551;-73
2023/07/26 12:53:32;;;;;;;7.85;2.78;;;;;;;;;;4971030;28;99634;-73
2023/07/26 12:55:59;;;;;;;2.28;2.05;;;;;;;;;;4972219;28;99612;-73
2023/07/26 12:58:25;;;;;;;4.40;2.33;;;;;;;;;;4971225;28;99491;-76
2023/07/26 13:00:52;;;;;;;4.28;2.33;;;;;;;;;;4972150;28;99485;-75
2023/07/26 13:03:21;;;;;;;3.40;2.37;;;;;;;;;;4972819;28;98534;-75
2023/07/26 13:05:50;;;;;;;4.25;2.47;;;;;;;;;;4970843;28;99371;-75
2023/07/26 13:08:16;;;;;;;4.68;2.13;;;;;;;;;;4971870;28;99358;-75
2023/07/26 13:10:43;;;;;;;3.50;2.08;;;;;;;;;;4955899;28;97769;-75
2023/07/26 13:13:09;;;;;;;7.45;2.13;;;;;;;;;;4971884;28;98594;-75
2023/07/26 13:15:36;;;;;;;3.58;1.98;;;;;;;;;;4972363;28;101551;-74
2023/07/26 13:18:02;;;;;;;2.15;1.92;;;;;;;;;;4971968;28;99958;-75
2023/07/26 13:20:29;;;;;;;4.05;2.10;;;;;;;;;;4971267;28;100532;-75
2023/07/26 13:22:55;;;;;;;4.25;2.15;;;;;;;;;;4970867;28;98533;-75
2023/07/26 13:25:21;;;;;;;2.30;1.90;;;;;;;;;;4969278;28;99201;-74
2023/07/26 13:27:48;;;;;;;2.13;1.85;;;;;;;;;;4972654;28;100791;-75
2023/07/26 13:30:14;;;;;;;5.05;2.20;;;;;;;;;;4966995;28;98752;-74
2023/07/26 13:32:41;;;;;;;5.93;2.38;;;;;;;;;;4962598;28;98833;-74
2023/07/26 13:35:08;;;;;;;4.07;2.15;;;;;;;;;;4972014;28;98810;-74
2023/07/26 13:37:36;;;;;;;4.47;2.05;;;;;;;;;;4970351;28;98586;-74
2023/07/26 13:40:04;;;;;;;3.22;1.90;;;;;;;;;;4974958;28;99179;-74
2023/07/26 13:42:32;;;;;;;3.87;2.00;;;;;;;;;;4971625;28;99478;-74
2023/07/26 13:45:00;;;;;;;3.05;1.77;;;;;;;;;;4968762;28;99893;-74
2023/07/26 13:47:27;;;;;;;3.75;2.30;;;;;;;;;;4970710;28;100446;-74
2023/07/26 13:49:54;;;;;;;2.70;2.25;;;;;;;;;;4970681;28;98561;-74
2023/07/26 13:52:20;;;;;;;2.20;1.83;;;;;;;;;;4971428;28;99036;-74
2023/07/26 13:54:47;;;;;;;3.90;2.17;;;;;;;;;;4972089;28;99250;-74
2023/07/26 13:57:13;;;;;;;2.17;1.95;;;;;;;;;;4972141;28;98606;-74
2023/07/26 13:59:40;;;;;;;4.05;2.13;;;;;;;;;;4969451;28;99896;-74
2023/07/26 14:02:06;;;;;;;1.80;1.70;;;;;;;;;;4971099;28;98574;-75
2023/07/26 14:04:33;;;;;;;3.03;1.70;;;;;;;;;;4971321;28;99158;-75
2023/07/26 14:06:59;;;;;;;3.10;1.98;;;;;;;;;;4969443;28;100234;-75
2023/07/26 14:09:25;;;;;;;3.17;2.13;;;;;;;;;;4953260;28;98799;-74
2023/07/26 14:11:52;;;;;;;4.43;1.80;;;;;;;;;;4951837;28;99177;-74
2023/07/26 14:14:18;;;;;;;2.83;1.90;;;;;;;;;;4963786;28;99421;-74
2023/07/26 14:16:45;;;;;;;5.53;2.22;;;;;;;;;;4959602;28;99040;-74
2023/07/26 14:19:11;;;;;;;5.45;2.47;;;;;;;;;;4970642;28;99311;-74
2023/07/26 14:21:38;;;;;;;7.03;2.10;;;;;;;;;;4972791;28;100086;-74
2023/07/26 14:24:04;;;;;;;5.45;2.72;;;;;;;;;;4970820;28;99058;-74
2023/07/26 14:26:31;;;;;;;2.78;2.40;;;;;;;;;;4970344;28;99817;-75
2023/07/26 14:28:58;;;;;;;2.83;2.22;;;;;;;;;;4970395;28;98667;-74
2023/07/26 14:31:24;;;;;;;8.68;2.65;;;;;;;;;;4969553;28;99448;-74
2023/07/26 14:33:52;;;;;;;3.80;2.10;;;;;;;;;;4953626;28;99268;-74
2023/07/26 14:36:19;;;;;;;6.60;2.47;;;;;;;;;;4969591;28;98534;-74
2023/07/26 14:38:46;;;;;;;7.00;2.60;;;;;;;;;;4972245;28;98488;-74
2023/07/26 14:41:13;;;;;;;4.93;2.50;;;;;;;;;;4967201;28;99498;-74